Rechercher aéroport 
image banner adimage banner ad
image banner ad

DABT - Batna / Mostepha Ben Boulaid

Situé à Batna, Algeria

ICAO - DABT, IATA - BLJ

Données fournies par Airmate  

Information générale

Coordonnées: N35°45'33" E6°19'21"
Élévation : 2700 feet MSL.
 
Voir autres Aéroports à Batna Province

Données opérationnelles

Accessible au public
Heure actuelle UTC:
Heure actuelle locale:
Météo
METAR: DABT 230700Z 00000KT CAVOK 18/10 Q1019
TAF: TAF DABT 230500Z 2306/2406 33008KT 9999 SCT030 PROB40 TEMPO 2310/2322 FEW026CB PROB40 TEMPO 2314/2320 5000 -TSRA BKN090
Voir NOTAMs / SUP AIP / TFR affectant cet aéroport [VIEW]
Fréquences de communication: [VIEW]

Pistes:

Identifiant RWYQFULongueur (ft)Largeur (ft)SurfaceLDA (ft)
0555°9843148ASP
23235°9843148

Coordonnées de l'aéroport

Adresse: Batna Algeria

Vue satellite de DABT